createdAt,value
2023-05-10T00:00:08.630Z,5.40
2023-05-10T00:01:34.654Z,5.10
2023-05-10T00:02:36.190Z,5.90
2023-05-10T00:03:38.032Z,5.70
2023-05-10T00:04:39.876Z,6.20
2023-05-10T00:05:41.631Z,5.20
2023-05-10T00:06:43.389Z,5.90
2023-05-10T00:07:47.717Z,5.80
2023-05-10T00:08:49.200Z,5.80
2023-05-10T00:09:50.656Z,6.00
2023-05-10T00:10:53.195Z,6.40
2023-05-10T00:11:54.783Z,5.40
2023-05-10T00:12:56.269Z,5.50
2023-05-10T00:13:57.769Z,5.20
2023-05-10T00:14:59.381Z,5.50
2023-05-10T00:16:00.848Z,5.90
2023-05-10T00:17:02.351Z,5.40
2023-05-10T00:18:03.929Z,6.80
2023-05-10T00:19:05.444Z,6.00
2023-05-10T00:20:07.560Z,5.40
2023-05-10T00:21:09.162Z,5.60
2023-05-10T00:22:10.780Z,5.60
2023-05-10T00:23:12.880Z,5.30
2023-05-10T00:24:14.290Z,5.70
2023-05-10T00:25:15.787Z,5.50
2023-05-10T00:26:17.372Z,5.30
2023-05-10T00:27:20.047Z,5.80
2023-05-10T00:28:21.560Z,5.60
2023-05-10T00:29:22.969Z,5.50
2023-05-10T00:30:24.660Z,5.60
2023-05-10T00:31:26.744Z,5.20
2023-05-10T00:32:28.421Z,5.30
2023-05-10T00:33:30.986Z,5.40
2023-05-10T00:34:32.585Z,5.40
2023-05-10T00:35:34.294Z,5.50
2023-05-10T00:36:35.823Z,6.00
2023-05-10T00:37:37.279Z,5.80
2023-05-10T00:38:38.671Z,5.60
2023-05-10T00:39:40.131Z,5.20
2023-05-10T00:40:41.917Z,5.30
2023-05-10T00:41:47.791Z,5.30
2023-05-10T00:42:49.155Z,5.10
2023-05-10T00:43:50.607Z,5.80
2023-05-10T00:44:52.113Z,5.80
2023-05-10T00:45:54.399Z,5.10
2023-05-10T00:46:56.198Z,6.20
2023-05-10T00:47:57.638Z,5.40
2023-05-10T00:48:59.664Z,5.60
2023-05-10T00:50:02.369Z,5.40
2023-05-10T00:51:04.079Z,5.50
2023-05-10T00:52:05.708Z,5.70
2023-05-10T00:53:08.324Z,5.70
2023-05-10T00:54:12.933Z,5.50
2023-05-10T00:55:14.404Z,5.80
2023-05-10T00:56:16.739Z,5.20
2023-05-10T00:57:18.342Z,5.50
2023-05-10T00:58:19.992Z,5.00
2023-05-10T00:59:21.793Z,5.70
2023-05-10T01:00:23.283Z,5.20
2023-05-10T01:01:25.734Z,5.90
2023-05-10T01:02:27.950Z,5.90
2023-05-10T01:03:29.972Z,5.60
2023-05-10T01:04:31.725Z,5.70
2023-05-10T01:05:33.254Z,5.10
2023-05-10T01:06:34.909Z,5.60
2023-05-10T01:07:36.481Z,5.20
2023-05-10T01:08:39.377Z,5.60
2023-05-10T01:09:40.886Z,5.50
2023-05-10T01:10:43.503Z,5.90
2023-05-10T01:11:45.365Z,5.80
2023-05-10T01:12:48.002Z,5.70
2023-05-10T01:13:57.512Z,5.70
2023-05-10T01:15:01.291Z,5.50
2023-05-10T01:16:03.712Z,5.60
2023-05-10T01:17:07.079Z,5.80
2023-05-10T01:18:09.458Z,5.40
2023-05-10T01:19:20.601Z,5.20
2023-05-10T01:20:22.366Z,5.70
2023-05-10T01:21:33.512Z,5.60
2023-05-10T01:22:59.100Z,5.40
2023-05-10T01:24:19.903Z,5.90
2023-05-10T01:25:39.807Z,5.60
2023-05-10T01:27:18.858Z,5.90
2023-05-10T01:29:03.054Z,5.70
2023-05-10T01:32:16.950Z,5.30
2023-05-10T01:33:57.104Z,5.60
2023-05-10T01:35:29.408Z,5.70
2023-05-10T01:36:55.932Z,5.50
2023-05-10T01:38:09.462Z,5.60
2023-05-10T01:39:15.652Z,5.30
2023-05-10T01:40:23.617Z,5.60
2023-05-10T01:41:46.268Z,5.80
2023-05-10T01:42:55.866Z,5.50
2023-05-10T01:44:10.447Z,5.20
2023-05-10T01:45:20.381Z,5.40
2023-05-10T01:46:29.251Z,6.10
2023-05-10T01:47:39.169Z,6.10
2023-05-10T01:48:48.760Z,5.70
2023-05-10T01:49:54.849Z,5.20
2023-05-10T01:50:58.409Z,5.80
2023-05-10T01:52:09.013Z,5.60
2023-05-10T01:53:13.609Z,5.40
2023-05-10T01:54:19.821Z,5.40
2023-05-10T01:55:25.151Z,5.70
2023-05-10T01:56:28.531Z,5.70
2023-05-10T01:57:33.939Z,5.50
2023-05-10T01:58:38.435Z,6.20
2023-05-10T01:59:43.414Z,5.50
2023-05-10T02:00:46.633Z,5.40
2023-05-10T02:01:50.321Z,5.70
2023-05-10T02:02:53.255Z,5.70
2023-05-10T02:03:57.248Z,5.70
2023-05-10T02:05:00.280Z,5.50
2023-05-10T02:06:03.552Z,5.40
2023-05-10T02:07:07.169Z,5.70
2023-05-10T02:08:10.245Z,5.40
2023-05-10T02:09:13.369Z,5.60
2023-05-10T02:10:16.461Z,5.80
2023-05-10T02:11:21.856Z,5.60
2023-05-10T02:12:24.438Z,6.10
2023-05-10T02:13:28.847Z,5.50
2023-05-10T02:14:34.681Z,6.60
2023-05-10T02:15:38.998Z,5.60
2023-05-10T02:16:41.680Z,5.90
2023-05-10T02:17:44.530Z,5.30
2023-05-10T02:18:47.361Z,5.90
2023-05-10T02:19:49.957Z,6.60
2023-05-10T02:20:54.014Z,6.00
2023-05-10T02:21:57.547Z,5.90
2023-05-10T02:23:00.268Z,6.30
2023-05-10T02:24:03.590Z,6.60
2023-05-10T02:25:07.203Z,5.10
2023-05-10T02:26:09.906Z,5.80
2023-05-10T02:27:12.757Z,6.20
2023-05-10T02:28:15.849Z,6.00
2023-05-10T02:29:19.009Z,5.70
2023-05-10T02:30:22.017Z,5.80
2023-05-10T02:31:25.893Z,5.50
2023-05-10T02:32:29.507Z,6.00
2023-05-10T02:33:33.905Z,6.10
2023-05-10T02:34:36.548Z,5.80
2023-05-10T02:35:39.448Z,6.50
2023-05-10T02:36:42.494Z,5.90
2023-05-10T02:37:45.977Z,5.40
2023-05-10T02:38:49.296Z,5.90
2023-05-10T02:39:54.363Z,5.30
2023-05-10T02:40:57.002Z,6.00
2023-05-10T02:41:59.298Z,5.80
2023-05-10T02:43:02.858Z,5.30
2023-05-10T02:44:08.243Z,6.00
2023-05-10T02:45:15.067Z,5.90
2023-05-10T02:46:17.809Z,6.00
2023-05-10T02:47:19.944Z,5.90
2023-05-10T02:48:21.566Z,5.80
2023-05-10T02:49:23.566Z,6.60
2023-05-10T02:50:28.406Z,5.70
2023-05-10T02:51:34.037Z,6.00
2023-05-10T02:52:40.686Z,6.00
2023-05-10T02:53:44.795Z,5.30
2023-05-10T02:54:51.019Z,6.40
2023-05-10T02:55:57.436Z,5.70
2023-05-10T02:57:03.212Z,5.90
2023-05-10T02:58:04.728Z,5.90
2023-05-10T02:59:06.276Z,5.90
2023-05-10T03:00:08.838Z,6.20
2023-05-10T03:01:10.408Z,5.60
2023-05-10T03:02:15.105Z,6.40
2023-05-10T03:03:16.812Z,5.90
2023-05-10T03:04:18.535Z,6.90
2023-05-10T03:05:20.797Z,5.60
2023-05-10T03:06:22.468Z,5.90
2023-05-10T03:07:24.212Z,5.70
2023-05-10T03:08:26.367Z,5.90
2023-05-10T03:09:29.193Z,5.80
2023-05-10T03:10:32.919Z,5.90
2023-05-10T03:11:49.842Z,5.90
2023-05-10T03:13:17.100Z,5.90
2023-05-10T03:14:40.823Z,6.30
2023-05-10T03:16:09.784Z,5.30
2023-05-10T03:17:17.617Z,5.90
2023-05-10T03:18:23.893Z,5.90
2023-05-10T03:19:33.717Z,5.70
2023-05-10T03:20:38.039Z,5.60
2023-05-10T03:21:48.435Z,5.70
2023-05-10T03:23:25.531Z,6.00
2023-05-10T03:24:28.822Z,5.70
2023-05-10T03:25:32.839Z,6.10
2023-05-10T03:26:35.718Z,5.70
2023-05-10T03:27:44.522Z,6.00
2023-05-10T03:28:48.727Z,5.90
2023-05-10T03:29:51.546Z,5.90
2023-05-10T03:30:54.815Z,6.30
2023-05-10T03:31:57.903Z,5.60
2023-05-10T03:33:05.851Z,6.30
2023-05-10T03:34:07.414Z,6.30
2023-05-10T03:35:10.254Z,6.60
2023-05-10T03:36:12.065Z,6.30
2023-05-10T03:37:13.887Z,6.10
2023-05-10T03:38:15.693Z,6.90
2023-05-10T03:39:17.154Z,6.70
2023-05-10T03:40:19.509Z,6.20
2023-05-10T03:41:21.742Z,5.80
2023-05-10T03:42:23.607Z,5.50
2023-05-10T03:43:25.030Z,6.00
2023-05-10T03:44:27.295Z,6.30
2023-05-10T03:45:29.543Z,5.90
2023-05-10T03:46:31.116Z,6.00
2023-05-10T03:47:32.929Z,5.60
2023-05-10T03:48:35.219Z,6.00
2023-05-10T03:49:36.649Z,5.80
2023-05-10T03:50:38.437Z,5.80
2023-05-10T03:51:39.869Z,6.10
2023-05-10T03:52:41.480Z,6.00
2023-05-10T03:53:43.186Z,5.80
2023-05-10T03:54:44.610Z,6.00
2023-05-10T03:55:46.858Z,6.40
2023-05-10T03:56:48.298Z,5.90
2023-05-10T03:57:50.695Z,6.30
2023-05-10T03:58:52.259Z,5.90
2023-05-10T03:59:53.679Z,6.00
2023-05-10T04:00:55.944Z,5.90
2023-05-10T04:01:57.491Z,6.30
2023-05-10T04:02:59.204Z,5.90
2023-05-10T04:04:00.989Z,6.40
2023-05-10T04:05:03.045Z,6.20
2023-05-10T04:06:05.673Z,5.70
2023-05-10T04:07:08.292Z,6.10
2023-05-10T04:08:09.929Z,6.10
2023-05-10T04:09:11.384Z,5.60
2023-05-10T04:10:14.667Z,5.80
2023-05-10T04:11:16.334Z,6.40
2023-05-10T04:12:17.767Z,5.60
2023-05-10T04:13:19.408Z,5.80
2023-05-10T04:14:21.039Z,5.90
2023-05-10T04:15:22.536Z,5.90
2023-05-10T04:16:23.990Z,5.50
2023-05-10T04:17:25.536Z,5.80
2023-05-10T04:18:27.030Z,5.80
2023-05-10T04:19:31.621Z,5.60
2023-05-10T04:20:33.632Z,5.80
2023-05-10T04:21:35.020Z,5.90
2023-05-10T04:22:36.567Z,5.40
2023-05-10T04:23:38.259Z,6.10
2023-05-10T04:24:40.021Z,5.50
2023-05-10T04:25:41.483Z,5.70
2023-05-10T04:26:42.903Z,6.10
2023-05-10T04:27:44.306Z,6.10
2023-05-10T04:28:45.920Z,5.80
2023-05-10T04:29:47.440Z,5.50
2023-05-10T04:30:48.934Z,6.50
2023-05-10T04:31:51.210Z,5.90
2023-05-10T04:32:52.800Z,6.60
2023-05-10T04:33:54.559Z,6.00
2023-05-10T04:34:56.101Z,6.10
2023-05-10T04:35:57.629Z,5.80
2023-05-10T04:36:59.059Z,5.40
2023-05-10T04:38:00.443Z,5.20
2023-05-10T04:39:03.367Z,5.70
2023-05-10T04:40:06.540Z,5.30
2023-05-10T04:41:09.751Z,5.90
2023-05-10T04:42:11.684Z,5.60
2023-05-10T04:43:13.432Z,5.60
2023-05-10T04:44:14.963Z,5.80
2023-05-10T04:45:16.925Z,5.80
2023-05-10T04:46:19.130Z,5.50
2023-05-10T04:47:20.622Z,5.80
2023-05-10T04:48:22.034Z,5.40
2023-05-10T04:49:23.920Z,5.50
2023-05-10T04:50:25.444Z,6.10
2023-05-10T04:51:26.808Z,5.80
2023-05-10T04:52:28.169Z,6.00
2023-05-10T04:53:29.967Z,5.80
2023-05-10T04:54:33.693Z,6.30
2023-05-10T04:55:36.028Z,6.40
2023-05-10T04:56:37.681Z,5.90
2023-05-10T04:57:39.210Z,5.60
2023-05-10T04:58:40.711Z,5.50
2023-05-10T04:59:42.976Z,5.60
2023-05-10T05:00:44.535Z,5.70
2023-05-10T05:01:46.078Z,5.30
2023-05-10T05:02:47.653Z,5.70
2023-05-10T05:03:49.300Z,5.60
2023-05-10T05:04:51.350Z,5.60
2023-05-10T05:05:52.897Z,5.50
2023-05-10T05:06:54.281Z,5.60
2023-05-10T05:07:55.765Z,6.00
2023-05-10T05:08:57.213Z,6.20
2023-05-10T05:09:58.907Z,6.10
2023-05-10T05:11:00.528Z,5.30
2023-05-10T05:12:01.925Z,5.70
2023-05-10T05:13:03.468Z,5.80
2023-05-10T05:14:05.020Z,6.20
2023-05-10T05:15:09.770Z,5.70
2023-05-10T05:16:11.626Z,6.00
2023-05-10T05:17:13.139Z,6.00
2023-05-10T05:18:14.546Z,6.20
2023-05-10T05:19:16.089Z,6.40
2023-05-10T05:20:19.424Z,6.10
2023-05-10T05:21:21.860Z,6.00
2023-05-10T05:22:28.391Z,6.00
2023-05-10T05:23:30.452Z,5.30
2023-05-10T05:24:36.774Z,5.90
2023-05-10T05:25:38.314Z,5.70
2023-05-10T05:26:39.890Z,5.80
2023-05-10T05:27:41.535Z,5.60
2023-05-10T05:28:43.144Z,5.70
2023-05-10T05:29:44.513Z,6.30
2023-05-10T05:30:46.629Z,6.00
2023-05-10T05:31:48.063Z,6.30
2023-05-10T05:32:49.507Z,6.30
2023-05-10T05:33:51.041Z,5.90
2023-05-10T05:34:52.588Z,6.60
2023-05-10T05:35:54.184Z,6.20
2023-05-10T05:36:55.677Z,5.90
2023-05-10T05:37:57.065Z,5.60
2023-05-10T05:38:58.718Z,6.20
2023-05-10T05:40:02.057Z,6.30
2023-05-10T05:41:03.881Z,5.90
2023-05-10T05:42:05.428Z,5.80
2023-05-10T05:43:06.854Z,5.60
2023-05-10T05:44:08.561Z,5.70
2023-05-10T05:45:13.248Z,5.30
2023-05-10T05:46:15.033Z,6.00
2023-05-10T05:47:16.548Z,5.70
2023-05-10T05:48:18.087Z,6.00
2023-05-10T05:49:19.490Z,6.10
2023-05-10T05:50:20.900Z,5.90
2023-05-10T05:51:22.595Z,5.60
2023-05-10T05:52:24.013Z,6.10
2023-05-10T05:53:25.686Z,6.10
2023-05-10T05:54:28.192Z,6.20
2023-05-10T05:55:31.733Z,5.80
2023-05-10T05:56:33.601Z,5.50
2023-05-10T05:57:34.995Z,5.90
2023-05-10T05:58:36.388Z,5.90
2023-05-10T05:59:42.201Z,6.20
2023-05-10T06:00:43.612Z,5.90
2023-05-10T06:01:45.934Z,5.90
2023-05-10T06:02:48.271Z,7.00
2023-05-10T06:03:51.881Z,18.40
2023-05-10T06:04:54.843Z,9.10
2023-05-10T06:05:56.353Z,8.70
2023-05-10T06:06:57.895Z,6.70
2023-05-10T06:08:00.919Z,6.20
2023-05-10T06:09:02.879Z,6.30
2023-05-10T06:10:04.954Z,6.30
2023-05-10T06:11:06.358Z,5.90
2023-05-10T06:12:07.890Z,5.50
2023-05-10T06:13:10.176Z,6.00
2023-05-10T06:14:11.913Z,5.90
2023-05-10T06:15:13.567Z,6.10
2023-05-10T06:16:15.329Z,5.50
2023-05-10T06:17:16.994Z,6.00
2023-05-10T06:18:18.446Z,5.60
2023-05-10T06:19:19.835Z,5.70
2023-05-10T06:20:21.291Z,5.70
2023-05-10T06:21:22.790Z,5.60
2023-05-10T06:22:24.160Z,5.10
2023-05-10T06:23:25.803Z,5.60
2023-05-10T06:24:27.822Z,5.70
2023-05-10T06:25:29.531Z,5.30
2023-05-10T06:26:30.992Z,5.60
2023-05-10T06:27:32.626Z,5.40
2023-05-10T06:28:34.171Z,6.00
2023-05-10T06:29:35.547Z,5.70
2023-05-10T06:30:37.322Z,5.50
2023-05-10T06:31:38.722Z,5.80
2023-05-10T06:32:40.298Z,11.10
2023-05-10T06:33:41.746Z,10.80
2023-05-10T06:34:44.019Z,8.20
2023-05-10T06:35:45.554Z,6.00
2023-05-10T06:36:47.011Z,6.50
2023-05-10T06:37:48.912Z,6.50
2023-05-10T06:38:51.507Z,5.70
2023-05-10T06:39:52.904Z,5.60
2023-05-10T06:40:54.393Z,5.40
2023-05-10T06:41:55.814Z,5.50
2023-05-10T06:42:57.455Z,5.00
2023-05-10T06:43:58.973Z,5.70
2023-05-10T06:45:00.563Z,5.60
2023-05-10T06:46:02.032Z,5.50
2023-05-10T06:47:03.512Z,5.60
2023-05-10T06:48:05.155Z,5.90
2023-05-10T06:49:06.555Z,5.60
2023-05-10T06:50:09.115Z,5.50
2023-05-10T06:51:10.816Z,5.40
2023-05-10T06:52:12.584Z,8.80
2023-05-10T06:53:14.130Z,5.80
2023-05-10T06:54:15.552Z,5.10
2023-05-10T06:55:17.211Z,5.00
2023-05-10T06:56:21.670Z,5.30
2023-05-10T06:57:31.085Z,5.50
2023-05-10T06:58:33.147Z,5.60
2023-05-10T06:59:34.974Z,5.60
2023-05-10T07:00:40.777Z,5.20
2023-05-10T07:01:42.834Z,5.40
2023-05-10T07:02:44.803Z,5.00
2023-05-10T07:03:46.599Z,5.50
2023-05-10T07:04:48.563Z,5.30
2023-05-10T07:05:50.045Z,5.10
2023-05-10T07:06:51.422Z,4.80
2023-05-10T07:07:52.784Z,5.10
2023-05-10T07:08:54.259Z,4.90
2023-05-10T07:09:56.916Z,5.70
2023-05-10T07:11:03.774Z,4.50
2023-05-10T07:12:05.810Z,5.30
2023-05-10T07:13:08.387Z,4.80
2023-05-10T07:14:10.183Z,5.10
2023-05-10T07:15:11.766Z,4.80
2023-05-10T07:16:13.650Z,4.60
2023-05-10T07:17:15.387Z,4.20
2023-05-10T07:18:16.902Z,4.50
2023-05-10T07:19:18.943Z,4.40
2023-05-10T07:20:21.131Z,4.80
2023-05-10T07:21:24.567Z,5.00
2023-05-10T07:22:26.406Z,5.20
2023-05-10T07:23:28.036Z,4.90
2023-05-10T07:24:30.399Z,4.30
2023-05-10T07:25:32.072Z,4.50
2023-05-10T07:26:33.445Z,4.60
2023-05-10T07:27:35.259Z,4.70
2023-05-10T07:28:37.946Z,4.60
2023-05-10T07:29:39.570Z,4.30
2023-05-10T07:30:41.796Z,4.30
2023-05-10T07:31:43.283Z,4.20
2023-05-10T07:32:45.487Z,4.70
2023-05-10T07:33:46.986Z,5.10
2023-05-10T07:34:48.732Z,4.40
2023-05-10T07:35:50.663Z,4.30
2023-05-10T07:36:52.884Z,4.30
2023-05-10T07:37:54.275Z,4.30
2023-05-10T07:38:57.750Z,4.10
2023-05-10T07:39:59.442Z,4.20
2023-05-10T07:41:01.699Z,4.30
2023-05-10T07:42:03.358Z,4.00
2023-05-10T07:43:04.762Z,4.00
2023-05-10T07:44:06.567Z,4.10
2023-05-10T07:45:08.872Z,4.30
2023-05-10T07:46:11.393Z,4.00
2023-05-10T07:47:12.875Z,7.80
2023-05-10T07:48:14.324Z,4.90
2023-05-10T07:49:16.841Z,4.80
2023-05-10T07:50:18.645Z,4.10
2023-05-10T07:51:20.119Z,4.30
2023-05-10T07:52:22.824Z,3.70
2023-05-10T07:53:26.364Z,3.50
2023-05-10T07:54:28.167Z,4.40
2023-05-10T07:55:30.036Z,4.10
2023-05-10T07:56:32.905Z,4.20
2023-05-10T07:57:34.912Z,3.90
2023-05-10T07:58:36.419Z,4.20
2023-05-10T07:59:37.841Z,4.00
2023-05-10T08:00:39.934Z,3.90
2023-05-10T08:01:42.739Z,3.90
2023-05-10T08:02:44.401Z,3.90
2023-05-10T08:03:46.227Z,3.70
2023-05-10T08:04:47.713Z,3.90
2023-05-10T08:05:49.308Z,4.80
2023-05-10T08:06:50.817Z,4.30
2023-05-10T08:07:52.245Z,3.90
2023-05-10T08:08:54.505Z,3.80
2023-05-10T08:09:56.035Z,3.60
2023-05-10T08:10:57.710Z,3.40
2023-05-10T08:12:00.379Z,3.50
2023-05-10T08:13:01.838Z,3.50
2023-05-10T08:14:03.394Z,3.80
2023-05-10T08:15:05.478Z,3.70
2023-05-10T08:16:07.688Z,3.80
2023-05-10T08:17:09.296Z,3.50
2023-05-10T08:18:10.714Z,3.50
2023-05-10T08:19:12.167Z,4.10
2023-05-10T08:20:16.991Z,3.70
2023-05-10T08:21:18.778Z,5.20
2023-05-10T08:22:20.532Z,7.00
2023-05-10T08:23:21.950Z,3.70
2023-05-10T08:24:23.485Z,3.80
2023-05-10T08:25:24.970Z,4.10
2023-05-10T08:26:27.018Z,3.60
2023-05-10T08:27:28.448Z,3.50
2023-05-10T08:28:29.920Z,3.90
2023-05-10T08:29:38.616Z,3.60
2023-05-10T08:30:48.020Z,3.60
2023-05-10T08:31:49.764Z,3.30
2023-05-10T08:32:51.471Z,3.60
2023-05-10T08:33:53.092Z,4.40
2023-05-10T08:34:54.589Z,3.90
2023-05-10T08:35:56.126Z,3.60
2023-05-10T08:36:57.700Z,3.50
2023-05-10T08:37:59.208Z,3.70
2023-05-10T08:39:00.732Z,3.70
2023-05-10T08:40:03.353Z,3.70
2023-05-10T08:41:06.475Z,4.30
2023-05-10T08:42:09.502Z,3.90
2023-05-10T08:43:13.114Z,3.40
2023-05-10T08:44:16.167Z,3.50
2023-05-10T08:45:20.360Z,3.40
2023-05-10T08:46:23.247Z,3.40
2023-05-10T08:47:25.852Z,3.40
2023-05-10T08:48:30.826Z,3.20
2023-05-10T08:49:33.359Z,3.60
2023-05-10T08:50:37.167Z,3.50
2023-05-10T08:51:44.352Z,3.20
2023-05-10T08:52:49.474Z,3.40
2023-05-10T08:53:51.434Z,5.20
2023-05-10T08:54:53.419Z,3.90
2023-05-10T08:55:55.937Z,4.70
2023-05-10T08:56:57.519Z,4.00
2023-05-10T08:57:59.910Z,3.20
2023-05-10T08:59:02.082Z,3.20
2023-05-10T09:00:04.417Z,3.10
2023-05-10T09:01:06.230Z,3.80
2023-05-10T09:02:10.118Z,4.30
2023-05-10T09:03:13.307Z,3.50
2023-05-10T09:04:14.782Z,3.20
2023-05-10T09:05:18.005Z,3.10
2023-05-10T09:06:20.123Z,3.00
2023-05-10T09:07:21.736Z,3.70
2023-05-10T09:08:27.872Z,3.10
2023-05-10T09:09:29.562Z,3.80
2023-05-10T09:10:31.974Z,4.30
2023-05-10T09:11:33.858Z,3.20
2023-05-10T09:12:36.240Z,2.90
2023-05-10T09:13:38.263Z,3.30
2023-05-10T09:14:40.404Z,3.20
2023-05-10T09:15:42.125Z,3.00
2023-05-10T09:16:43.759Z,3.10
2023-05-10T09:17:46.093Z,3.30
2023-05-10T09:18:47.682Z,3.30
2023-05-10T09:19:49.211Z,3.70
2023-05-10T09:20:50.706Z,3.70
2023-05-10T09:21:52.238Z,3.10
2023-05-10T09:22:53.681Z,3.90
2023-05-10T09:23:55.959Z,3.40
2023-05-10T09:25:12.297Z,3.50
2023-05-10T09:26:13.684Z,3.00
2023-05-10T09:27:15.132Z,3.40
2023-05-10T09:28:16.512Z,4.30
2023-05-10T09:29:18.201Z,3.80
2023-05-10T09:30:31.144Z,4.10
2023-05-10T09:31:54.880Z,3.70
2023-05-10T09:32:58.480Z,3.20
2023-05-10T09:33:59.951Z,3.20
2023-05-10T09:35:10.590Z,3.60
2023-05-10T09:36:12.904Z,4.70
2023-05-10T09:37:14.627Z,3.20
2023-05-10T09:38:16.724Z,3.00
2023-05-10T09:39:18.342Z,2.90
2023-05-10T09:40:25.018Z,3.20
2023-05-10T09:41:28.401Z,3.10
2023-05-10T09:42:30.021Z,3.20
2023-05-10T09:43:38.524Z,5.30
2023-05-10T09:44:41.246Z,3.30
2023-05-10T09:45:42.897Z,3.90
2023-05-10T09:46:49.495Z,3.00
2023-05-10T09:47:51.079Z,3.60
2023-05-10T09:48:52.532Z,3.20
2023-05-10T09:49:58.071Z,3.10
2023-05-10T09:50:59.823Z,3.10
2023-05-10T09:52:01.869Z,3.30
2023-05-10T09:53:04.005Z,3.80
2023-05-10T09:54:16.887Z,3.10
2023-05-10T09:55:23.412Z,4.90
2023-05-10T09:56:36.034Z,3.40
2023-05-10T09:57:37.988Z,3.50
2023-05-10T09:58:39.450Z,3.30
2023-05-10T09:59:43.310Z,3.50
2023-05-10T10:00:48.002Z,3.80
2023-05-10T10:01:56.869Z,3.20
2023-05-10T10:02:59.959Z,3.20
2023-05-10T10:04:06.738Z,3.30
2023-05-10T10:05:09.148Z,3.40
2023-05-10T10:06:18.902Z,3.30
2023-05-10T10:07:28.954Z,3.30
2023-05-10T10:08:30.418Z,4.90
2023-05-10T10:09:33.316Z,3.50
2023-05-10T10:10:34.959Z,3.30
2023-05-10T10:11:38.365Z,3.80
2023-05-10T10:12:41.797Z,3.70
2023-05-10T10:13:43.519Z,3.20
2023-05-10T10:14:46.294Z,3.90
2023-05-10T10:15:51.277Z,3.60
2023-05-10T10:17:06.503Z,3.60
2023-05-10T10:18:13.835Z,4.50
2023-05-10T10:19:15.694Z,3.40
2023-05-10T10:20:19.581Z,3.60
2023-05-10T10:21:22.634Z,4.00
2023-05-10T10:22:24.076Z,3.50
2023-05-10T10:23:25.962Z,3.40
2023-05-10T10:24:27.375Z,3.40
2023-05-10T10:25:29.204Z,3.20
2023-05-10T10:26:30.934Z,21.60
2023-05-10T10:27:57.010Z,5.90
2023-05-10T10:29:35.022Z,3.80
2023-05-10T10:30:47.412Z,3.50
2023-05-10T10:31:56.512Z,3.40
2023-05-10T10:33:32.922Z,3.50
2023-05-10T10:34:34.829Z,3.80
2023-05-10T10:35:37.128Z,4.20
2023-05-10T10:36:46.519Z,3.70
2023-05-10T10:37:51.433Z,3.90
2023-05-10T10:39:01.496Z,3.70
2023-05-10T10:41:33.115Z,3.30
2023-05-10T10:42:50.113Z,3.40
2023-05-10T10:44:27.060Z,8.60
2023-05-10T10:45:29.026Z,5.10
2023-05-10T10:46:30.805Z,3.80
2023-05-10T10:47:33.525Z,3.40
2023-05-10T10:48:36.094Z,3.40
2023-05-10T10:50:00.883Z,3.50
2023-05-10T10:51:03.336Z,3.10
2023-05-10T10:52:24.263Z,3.00
2023-05-10T10:53:29.814Z,4.00
2023-05-10T10:54:32.939Z,3.80
2023-05-10T10:55:34.454Z,3.00
2023-05-10T10:56:37.176Z,3.40
2023-05-10T10:57:48.058Z,4.00
2023-05-10T10:58:53.920Z,3.60
2023-05-10T11:00:31.604Z,3.40
2023-05-10T11:01:35.566Z,3.30
2023-05-10T11:02:46.239Z,3.30
2023-05-10T11:03:59.575Z,3.50
2023-05-10T11:05:37.512Z,3.70
2023-05-10T11:06:40.527Z,4.10
2023-05-10T11:07:55.849Z,4.00
2023-05-10T11:08:57.786Z,3.70
2023-05-10T11:10:04.923Z,3.90
2023-05-10T11:11:07.432Z,3.70
2023-05-10T11:12:09.625Z,3.70
2023-05-10T11:13:11.171Z,4.00
2023-05-10T11:14:12.710Z,3.20
2023-05-10T11:15:14.584Z,3.00
2023-05-10T11:16:17.679Z,3.30
2023-05-10T11:17:29.466Z,3.20
2023-05-10T11:18:31.066Z,3.60
2023-05-10T11:19:32.557Z,12.50
2023-05-10T11:20:40.187Z,3.90
2023-05-10T11:22:13.751Z,3.40
2023-05-10T11:23:16.241Z,3.30
2023-05-10T11:24:28.330Z,4.00
2023-05-10T11:25:29.814Z,3.00
2023-05-10T11:26:34.073Z,3.50
2023-05-10T11:27:38.173Z,3.50
2023-05-10T11:28:48.462Z,3.60
2023-05-10T11:29:52.689Z,3.90
2023-05-10T11:30:54.915Z,3.70
2023-05-10T11:32:00.187Z,3.50
2023-05-10T11:33:01.805Z,3.70
2023-05-10T11:34:03.369Z,3.50
2023-05-10T11:35:08.822Z,3.00
2023-05-10T11:36:16.060Z,4.00
2023-05-10T11:37:18.611Z,3.40
2023-05-10T11:38:20.426Z,3.50
2023-05-10T11:39:26.080Z,3.20
2023-05-10T11:40:27.684Z,3.90
2023-05-10T11:41:31.068Z,3.60
2023-05-10T11:42:32.549Z,2.80
2023-05-10T11:43:34.126Z,3.60
2023-05-10T11:44:35.871Z,3.30
2023-05-10T11:45:37.937Z,3.20
2023-05-10T11:46:39.633Z,4.10
2023-05-10T11:47:43.722Z,3.00
2023-05-10T11:48:45.350Z,4.20
2023-05-10T11:49:48.156Z,3.80
2023-05-10T11:50:50.430Z,5.50
2023-05-10T11:51:51.858Z,3.30
2023-05-10T11:52:54.828Z,3.60
2023-05-10T11:53:57.353Z,3.30
2023-05-10T11:54:58.823Z,3.40
2023-05-10T11:56:08.183Z,2.90
2023-05-10T11:57:10.052Z,3.70
2023-05-10T11:58:11.781Z,3.20
2023-05-10T11:59:15.226Z,3.60
2023-05-10T12:00:17.055Z,5.00
2023-05-10T12:01:18.791Z,3.60
2023-05-10T12:02:20.628Z,3.60
2023-05-10T12:03:22.574Z,3.50
2023-05-10T12:04:25.218Z,3.40
2023-05-10T12:05:26.816Z,3.90
2023-05-10T12:06:31.263Z,3.20
2023-05-10T12:07:32.791Z,3.30
2023-05-10T12:08:34.468Z,3.50
2023-05-10T12:09:43.871Z,3.80
2023-05-10T12:10:46.020Z,3.00
2023-05-10T12:11:47.718Z,4.50
2023-05-10T12:12:52.882Z,3.10
2023-05-10T12:13:55.338Z,2.90
2023-05-10T12:14:56.804Z,3.60
2023-05-10T12:15:59.357Z,3.50
2023-05-10T12:17:00.956Z,4.20
2023-05-10T12:18:03.133Z,3.60
2023-05-10T12:19:05.616Z,3.80
2023-05-10T12:20:21.349Z,3.50
2023-05-10T12:21:22.999Z,3.60
2023-05-10T12:22:24.975Z,3.70
2023-05-10T12:23:26.763Z,3.20
2023-05-10T12:24:28.397Z,3.20
2023-05-10T12:25:33.057Z,3.20
2023-05-10T12:26:35.788Z,3.00
2023-05-10T12:27:37.381Z,3.50
2023-05-10T12:28:42.413Z,4.50
2023-05-10T12:29:46.698Z,3.40
2023-05-10T12:30:48.117Z,4.00
2023-05-10T12:31:54.854Z,3.00
2023-05-10T12:33:11.790Z,3.00
2023-05-10T12:34:23.340Z,3.40
2023-05-10T12:35:24.943Z,3.30
2023-05-10T12:36:26.357Z,2.80
2023-05-10T12:37:28.697Z,2.80
2023-05-10T12:38:33.703Z,3.90
2023-05-10T12:39:42.557Z,3.60
2023-05-10T12:40:44.157Z,3.90
2023-05-10T12:41:45.747Z,3.40
2023-05-10T12:42:47.326Z,3.80
2023-05-10T12:43:48.763Z,3.30
2023-05-10T12:44:50.249Z,3.40
2023-05-10T12:45:51.922Z,3.60
2023-05-10T12:46:53.644Z,3.20
2023-05-10T12:47:55.165Z,3.30
2023-05-10T12:49:08.005Z,3.70
2023-05-10T12:50:10.686Z,3.20
2023-05-10T12:51:13.747Z,3.30
2023-05-10T12:52:15.398Z,3.50
2023-05-10T12:53:17.168Z,3.20
2023-05-10T12:54:18.816Z,3.50
2023-05-10T12:55:20.331Z,3.30
2023-05-10T12:56:22.139Z,3.90
2023-05-10T12:57:23.891Z,3.80
2023-05-10T12:58:34.953Z,5.30
2023-05-10T12:59:38.359Z,4.50
2023-05-10T14:06:09.701Z,4.20
2023-05-10T14:07:11.834Z,3.50
2023-05-10T14:08:14.040Z,3.50
2023-05-10T14:09:16.402Z,3.70
2023-05-10T14:10:18.182Z,3.30
2023-05-10T14:11:21.588Z,3.10
2023-05-10T14:12:24.234Z,3.00
2023-05-10T14:13:25.891Z,3.30
2023-05-10T14:14:29.596Z,3.20
2023-05-10T14:15:31.496Z,3.70
2023-05-10T14:16:33.742Z,3.80
2023-05-10T14:17:35.731Z,3.20
2023-05-10T14:18:38.240Z,3.00
2023-05-10T14:19:40.083Z,3.10
2023-05-10T14:20:41.641Z,3.00
2023-05-10T14:21:43.719Z,3.80
2023-05-10T14:22:45.175Z,3.50
2023-05-10T14:23:46.579Z,4.40
2023-05-10T14:24:47.993Z,3.20
2023-05-10T14:25:49.946Z,3.00
2023-05-10T14:26:54.150Z,3.40
2023-05-10T14:27:55.751Z,2.80
2023-05-10T14:28:57.314Z,3.20
2023-05-10T14:29:58.860Z,3.10
2023-05-10T14:31:00.356Z,3.20
2023-05-10T14:32:03.674Z,3.40
2023-05-10T14:33:05.514Z,2.70
2023-05-10T14:34:07.087Z,3.00
2023-05-10T14:35:12.201Z,2.40
2023-05-10T14:36:14.756Z,2.80
2023-05-10T14:37:16.734Z,2.70
2023-05-10T14:38:18.239Z,2.90
2023-05-10T14:39:19.606Z,3.50
2023-05-10T14:40:21.440Z,3.70
2023-05-10T14:41:23.613Z,3.80
2023-05-10T14:42:25.420Z,3.60
2023-05-10T14:43:28.035Z,3.10
2023-05-10T14:44:29.958Z,3.30
2023-05-10T14:45:31.525Z,3.10
2023-05-10T14:46:34.729Z,3.40
2023-05-10T14:47:36.255Z,3.30
2023-05-10T14:48:38.172Z,3.80
2023-05-10T14:49:39.558Z,3.40
2023-05-10T14:50:41.535Z,3.40
2023-05-10T14:51:43.012Z,2.70
2023-05-10T14:53:37.286Z,3.00
2023-05-10T14:54:45.007Z,2.50
2023-05-10T14:55:47.267Z,2.60
2023-05-10T14:56:53.102Z,2.90
2023-05-10T14:57:54.950Z,2.80
2023-05-10T14:58:56.849Z,2.70
2023-05-10T15:00:00.448Z,2.60
2023-05-10T15:01:04.099Z,2.70
2023-05-10T15:02:06.359Z,3.20
2023-05-10T15:03:08.979Z,2.80
2023-05-10T15:04:11.371Z,2.70
2023-05-10T15:05:13.890Z,2.90
2023-05-10T15:06:16.815Z,2.40
2023-05-10T15:07:18.994Z,2.90
2023-05-10T15:08:21.256Z,3.00
2023-05-10T15:09:23.533Z,2.70
2023-05-10T15:10:25.888Z,3.20
2023-05-10T15:11:27.393Z,3.80
2023-05-10T15:12:29.286Z,3.20
2023-05-10T15:13:31.121Z,2.60
2023-05-10T15:14:33.389Z,2.30
2023-05-10T15:15:35.366Z,2.80
2023-05-10T15:16:37.638Z,3.00
2023-05-10T15:17:39.376Z,3.10
2023-05-10T15:18:41.038Z,2.70